Time;durP1;ratioP1;P1;durP2;ratioP2;P2;SDS_P1;SDS_P2;PMS_P1;PMS_P2;Temp;Humidity;BMP_temperature;BMP_pressure;BME280_temperature;BME280_humidity;BME280_pressure;Samples;Min_cycle;Max_cycle;Signal;HPM_P1;HPM_P2
2023/04/17 00:01:49;;;;;;;31.15;16.27;;;;;;;;;;5023782;28;20041;-60
2023/04/17 00:04:16;;;;;;;32.80;16.02;;;;;;;;;;5022266;28;20107;-59
2023/04/17 00:06:43;;;;;;;34.58;15.13;;;;;;;;;;5023273;28;20740;-59
2023/04/17 00:09:09;;;;;;;29.88;15.52;;;;;;;;;;5023305;28;20053;-59
2023/04/17 00:11:36;;;;;;;36.90;17.98;;;;;;;;;;5022976;28;20072;-59
2023/04/17 00:14:02;;;;;;;35.97;17.05;;;;;;;;;;5038683;28;20059;-59
2023/04/17 00:16:28;;;;;;;36.83;16.77;;;;;;;;;;5023166;28;20126;-61
2023/04/17 00:18:55;;;;;;;32.33;16.65;;;;;;;;;;5023728;28;20049;-58
2023/04/17 00:21:21;;;;;;;29.85;15.82;;;;;;;;;;5023648;28;20728;-59
2023/04/17 00:23:47;;;;;;;34.63;16.38;;;;;;;;;;5022468;28;20538;-58
2023/04/17 00:26:14;;;;;;;31.00;15.82;;;;;;;;;;5023484;28;20045;-59
2023/04/17 00:28:40;;;;;;;35.97;17.77;;;;;;;;;;5025370;28;20479;-60
2023/04/17 00:31:07;;;;;;;34.95;17.42;;;;;;;;;;5027048;28;20044;-60
2023/04/17 00:33:33;;;;;;;35.60;16.50;;;;;;;;;;5026200;28;20111;-59
2023/04/17 00:35:59;;;;;;;32.65;16.65;;;;;;;;;;5026260;28;20479;-60
2023/04/17 00:38:25;;;;;;;34.55;17.67;;;;;;;;;;5026649;28;20099;-59
2023/04/17 00:40:51;;;;;;;36.72;17.58;;;;;;;;;;5026337;28;20415;-59
2023/04/17 00:43:17;;;;;;;36.22;17.45;;;;;;;;;;5027009;28;20509;-59
2023/04/17 00:45:45;;;;;;;34.50;16.63;;;;;;;;;;5026099;28;20045;-59
2023/04/17 00:48:12;;;;;;;37.30;16.55;;;;;;;;;;5025158;28;20100;-59
2023/04/17 00:50:39;;;;;;;35.63;17.60;;;;;;;;;;5026434;28;20141;-60
2023/04/17 00:53:06;;;;;;;34.67;17.48;;;;;;;;;;5026248;28;20045;-59
2023/04/17 00:55:34;;;;;;;42.13;18.60;;;;;;;;;;5025868;28;20095;-59
2023/04/17 00:58:00;;;;;;;36.28;18.10;;;;;;;;;;5025162;28;20731;-59
2023/04/17 01:00:26;;;;;;;39.58;18.42;;;;;;;;;;5026834;28;20099;-59
2023/04/17 01:02:52;;;;;;;41.10;18.35;;;;;;;;;;5025353;28;20057;-58
2023/04/17 01:05:19;;;;;;;33.70;17.52;;;;;;;;;;5026093;28;20044;-60
2023/04/17 01:07:45;;;;;;;40.28;19.25;;;;;;;;;;5025205;28;20045;-59
2023/04/17 01:10:11;;;;;;;37.13;17.95;;;;;;;;;;5026370;28;20042;-59
2023/04/17 01:12:38;;;;;;;39.30;18.08;;;;;;;;;;5025483;28;20069;-60
2023/04/17 01:15:04;;;;;;;42.22;18.98;;;;;;;;;;5025619;28;20449;-59
2023/04/17 01:17:30;;;;;;;42.85;19.35;;;;;;;;;;5026094;28;20459;-59
2023/04/17 01:19:57;;;;;;;47.10;20.92;;;;;;;;;;5026046;28;20080;-59
2023/04/17 01:22:23;;;;;;;41.08;19.65;;;;;;;;;;5024271;28;20041;-59
2023/04/17 01:24:49;;;;;;;40.40;18.17;;;;;;;;;;5025826;28;20121;-59
2023/04/17 01:27:15;;;;;;;41.70;20.08;;;;;;;;;;5026030;28;20051;-59
2023/04/17 01:29:42;;;;;;;44.13;18.73;;;;;;;;;;5025588;28;20045;-59
2023/04/17 01:32:08;;;;;;;43.00;20.95;;;;;;;;;;5025888;28;20344;-60
2023/04/17 01:34:34;;;;;;;38.58;18.73;;;;;;;;;;5024239;28;20033;-59
2023/04/17 01:37:01;;;;;;;42.58;20.70;;;;;;;;;;5026066;28;20044;-60
2023/04/17 01:39:27;;;;;;;42.53;20.00;;;;;;;;;;5024407;28;20077;-59
2023/04/17 01:41:53;;;;;;;44.25;19.98;;;;;;;;;;5025486;28;20475;-59
2023/04/17 01:44:20;;;;;;;44.05;20.60;;;;;;;;;;5026000;28;20492;-60
2023/04/17 01:46:46;;;;;;;42.38;20.20;;;;;;;;;;5025588;28;20574;-59
2023/04/17 01:49:13;;;;;;;49.17;20.60;;;;;;;;;;5025177;28;20049;-59
2023/04/17 01:51:39;;;;;;;44.65;21.13;;;;;;;;;;5025280;28;20042;-60
2023/04/17 01:54:05;;;;;;;44.88;20.70;;;;;;;;;;5024377;28;20037;-60
2023/04/17 01:56:32;;;;;;;47.10;20.65;;;;;;;;;;5025015;28;20065;-60
2023/04/17 01:58:58;;;;;;;42.60;22.02;;;;;;;;;;5025270;28;20056;-63
2023/04/17 02:01:24;;;;;;;47.88;22.52;;;;;;;;;;5026052;28;20060;-59
2023/04/17 02:03:50;;;;;;;46.22;21.23;;;;;;;;;;5024980;28;20041;-60
2023/04/17 02:06:16;;;;;;;49.42;21.38;;;;;;;;;;5025053;28;20076;-59
2023/04/17 02:08:42;;;;;;;50.15;22.20;;;;;;;;;;5024242;28;20491;-59
2023/04/17 02:11:09;;;;;;;45.97;21.23;;;;;;;;;;5024384;28;20551;-60
2023/04/17 02:13:35;;;;;;;43.28;20.67;;;;;;;;;;5024739;28;20062;-64
2023/04/17 02:16:01;;;;;;;46.85;21.77;;;;;;;;;;5025095;28;20048;-60
2023/04/17 02:18:27;;;;;;;45.83;20.88;;;;;;;;;;5025530;28;20045;-60
2023/04/17 02:20:54;;;;;;;45.67;22.58;;;;;;;;;;5025027;28;20438;-59
2023/04/17 02:23:20;;;;;;;44.17;22.13;;;;;;;;;;5024269;28;20045;-60
2023/04/17 02:25:46;;;;;;;48.40;22.40;;;;;;;;;;5024906;28;20046;-60
2023/04/17 02:28:12;;;;;;;52.42;22.30;;;;;;;;;;5024708;28;20049;-60
2023/04/17 02:30:38;;;;;;;45.35;21.33;;;;;;;;;;5024831;28;20041;-60
2023/04/17 02:33:04;;;;;;;50.55;22.63;;;;;;;;;;5024610;28;20057;-60
2023/04/17 02:35:31;;;;;;;47.10;21.33;;;;;;;;;;5024426;28;20045;-59
2023/04/17 02:37:57;;;;;;;48.17;22.27;;;;;;;;;;5023955;28;20087;-59
2023/04/17 02:40:23;;;;;;;49.47;23.23;;;;;;;;;;5023912;28;20487;-59
2023/04/17 02:42:50;;;;;;;46.05;22.73;;;;;;;;;;5024696;28;20045;-60
2023/04/17 02:45:16;;;;;;;48.95;22.55;;;;;;;;;;5024423;28;20045;-59
2023/04/17 02:47:42;;;;;;;46.10;21.70;;;;;;;;;;5023345;28;20053;-59
2023/04/17 02:50:08;;;;;;;44.13;21.20;;;;;;;;;;5024694;28;20046;-59
2023/04/17 02:52:34;;;;;;;47.75;21.13;;;;;;;;;;5023637;28;20124;-59
2023/04/17 02:55:00;;;;;;;50.30;23.42;;;;;;;;;;5023830;28;20050;-59
2023/04/17 02:57:27;;;;;;;47.10;22.15;;;;;;;;;;5025001;28;20050;-58
2023/04/17 02:59:53;;;;;;;46.22;22.20;;;;;;;;;;5024216;28;20045;-59
2023/04/17 03:02:20;;;;;;;49.80;21.13;;;;;;;;;;5024134;28;20569;-60
2023/04/17 03:04:49;;;;;;;43.90;21.40;;;;;;;;;;5024079;28;20434;-59
2023/04/17 03:07:17;;;;;;;;;;;;;;;;;;5024713;28;20136;-59
2023/04/17 03:09:45;;;;;;;49.28;21.52;;;;;;;;;;5024131;28;20462;-59
2023/04/17 03:12:13;;;;;;;55.92;21.92;;;;;;;;;;5023434;28;20060;-59
2023/04/17 03:14:40;;;;;;;47.05;22.63;;;;;;;;;;5024024;28;20041;-60
2023/04/17 03:17:06;;;;;;;53.28;22.15;;;;;;;;;;5024470;28;20052;-59
2023/04/17 03:19:32;;;;;;;47.50;22.10;;;;;;;;;;5024238;28;20049;-59
2023/04/17 03:21:58;;;;;;;51.53;22.02;;;;;;;;;;5022933;28;20050;-59
2023/04/17 03:24:24;;;;;;;49.25;22.55;;;;;;;;;;5024380;28;20483;-59
2023/04/17 03:26:51;;;;;;;56.10;22.35;;;;;;;;;;5024177;28;20045;-59
2023/04/17 03:29:17;;;;;;;54.33;22.00;;;;;;;;;;5024239;28;20049;-59
2023/04/17 03:31:43;;;;;;;53.35;21.60;;;;;;;;;;5023207;28;20045;-59
2023/04/17 03:34:09;;;;;;;53.78;22.58;;;;;;;;;;5023930;28;20092;-60
2023/04/17 03:36:35;;;;;;;52.42;22.83;;;;;;;;;;5023423;28;20081;-62
2023/04/17 03:39:01;;;;;;;63.97;21.92;;;;;;;;;;5023285;28;20080;-59
2023/04/17 03:41:27;;;;;;;50.58;22.27;;;;;;;;;;5024480;28;20046;-60
2023/04/17 03:43:54;;;;;;;52.50;23.05;;;;;;;;;;5024260;28;20282;-60
2023/04/17 03:46:21;;;;;;;48.53;22.05;;;;;;;;;;5023918;28;20042;-60
2023/04/17 03:48:47;;;;;;;50.88;21.75;;;;;;;;;;5023442;28;20056;-59
2023/04/17 03:51:14;;;;;;;45.00;21.45;;;;;;;;;;5023662;28;20440;-60
2023/04/17 03:53:40;;;;;;;49.97;21.83;;;;;;;;;;5022802;28;20048;-60
2023/04/17 03:56:07;;;;;;;48.45;21.85;;;;;;;;;;5023773;28;20124;-59
2023/04/17 03:58:33;;;;;;;46.15;20.83;;;;;;;;;;5023523;28;20041;-60
2023/04/17 04:01:00;;;;;;;48.53;22.42;;;;;;;;;;5023610;28;20687;-61
2023/04/17 04:03:28;;;;;;;49.05;21.65;;;;;;;;;;5026598;28;20432;-60
2023/04/17 04:05:54;;;;;;;49.88;22.10;;;;;;;;;;5027439;28;20045;-60
2023/04/17 04:08:20;;;;;;;47.63;21.63;;;;;;;;;;5027035;28;20487;-60
2023/04/17 04:10:46;;;;;;;49.95;20.90;;;;;;;;;;5026462;28;20041;-60
2023/04/17 04:13:13;;;;;;;51.20;21.83;;;;;;;;;;5027261;28;20046;-59
2023/04/17 04:15:39;;;;;;;51.03;21.33;;;;;;;;;;5027135;28;20128;-60
2023/04/17 04:18:05;;;;;;;44.83;19.65;;;;;;;;;;5027211;28;20481;-59
2023/04/17 04:20:31;;;;;;;47.10;21.77;;;;;;;;;;5026983;28;20621;-60
2023/04/17 04:22:58;;;;;;;44.85;19.80;;;;;;;;;;5026759;28;20041;-59
2023/04/17 04:25:25;;;;;;;47.75;20.20;;;;;;;;;;5027706;28;20080;-60
2023/04/17 04:27:52;;;;;;;41.57;18.90;;;;;;;;;;5026588;28;20534;-59
2023/04/17 04:30:20;;;;;;;43.13;19.45;;;;;;;;;;5026993;28;20048;-60
2023/04/17 04:32:46;;;;;;;39.42;19.25;;;;;;;;;;5025182;28;20049;-59
2023/04/17 04:35:13;;;;;;;40.13;19.25;;;;;;;;;;5027169;28;20116;-60
2023/04/17 04:37:41;;;;;;;45.35;20.88;;;;;;;;;;5026076;28;20552;-60
2023/04/17 04:40:09;;;;;;;46.55;19.13;;;;;;;;;;5026887;28;20116;-59
2023/04/17 04:42:36;;;;;;;43.95;20.23;;;;;;;;;;5026711;28;20083;-61
2023/04/17 04:45:03;;;;;;;42.13;19.80;;;;;;;;;;5026792;28;20053;-60
2023/04/17 04:47:30;;;;;;;41.28;20.27;;;;;;;;;;5026966;28;20046;-60
2023/04/17 04:49:56;;;;;;;38.17;18.13;;;;;;;;;;5026069;28;20068;-59
2023/04/17 04:52:22;;;;;;;47.58;20.88;;;;;;;;;;5026146;28;20393;-59
2023/04/17 04:54:48;;;;;;;44.20;20.25;;;;;;;;;;5026335;28;20103;-60
2023/04/17 04:57:14;;;;;;;40.65;19.23;;;;;;;;;;5026554;28;20499;-60
2023/04/17 04:59:40;;;;;;;41.13;20.02;;;;;;;;;;5026144;28;20045;-59
2023/04/17 05:02:07;;;;;;;42.50;18.98;;;;;;;;;;5025838;28;20388;-61
2023/04/17 05:04:34;;;;;;;40.20;18.65;;;;;;;;;;5026191;28;20843;-61
2023/04/17 05:07:00;;;;;;;38.47;19.20;;;;;;;;;;5025308;28;20045;-61
2023/04/17 05:09:26;;;;;;;38.60;18.38;;;;;;;;;;5025759;28;20037;-60
2023/04/17 05:11:52;;;;;;;35.13;18.17;;;;;;;;;;5025573;28;20426;-60
2023/04/17 05:14:19;;;;;;;43.28;18.98;;;;;;;;;;5025453;28;20133;-60
2023/04/17 05:16:45;;;;;;;38.83;18.50;;;;;;;;;;5024762;28;20042;-60
2023/04/17 05:19:11;;;;;;;40.63;19.80;;;;;;;;;;5026428;28;20063;-59
2023/04/17 05:21:37;;;;;;;42.97;19.00;;;;;;;;;;5024909;28;20100;-59
2023/04/17 05:24:04;;;;;;;38.45;18.17;;;;;;;;;;5026217;28;20048;-61
2023/04/17 05:26:30;;;;;;;42.22;19.13;;;;;;;;;;5025952;28;20042;-62
2023/04/17 05:28:56;;;;;;;37.58;18.65;;;;;;;;;;5024561;28;20052;-61
2023/04/17 05:31:22;;;;;;;40.38;18.90;;;;;;;;;;5024620;28;20045;-62
2023/04/17 05:33:48;;;;;;;42.72;19.00;;;;;;;;;;5025648;28;20556;-62
2023/04/17 05:36:14;;;;;;;38.08;17.77;;;;;;;;;;5025962;28;20090;-61
2023/04/17 05:38:40;;;;;;;41.95;18.80;;;;;;;;;;5024386;28;20130;-61
2023/04/17 05:41:07;;;;;;;43.08;18.75;;;;;;;;;;5025596;28;20064;-61
2023/04/17 05:43:33;;;;;;;44.08;19.02;;;;;;;;;;5023983;28;20048;-62
2023/04/17 05:45:59;;;;;;;41.40;18.17;;;;;;;;;;5024017;28;20045;-63
2023/04/17 05:48:25;;;;;;;37.88;18.10;;;;;;;;;;5025793;28;20053;-62
2023/04/17 05:50:52;;;;;;;36.55;17.73;;;;;;;;;;5025455;28;20041;-62
2023/04/17 05:53:18;;;;;;;36.33;17.85;;;;;;;;;;5024624;28;20088;-62
2023/04/17 05:55:44;;;;;;;44.17;18.33;;;;;;;;;;5024559;28;20116;-62
2023/04/17 05:58:10;;;;;;;41.45;19.00;;;;;;;;;;5025043;28;20056;-63
2023/04/17 06:00:37;;;;;;;38.35;18.60;;;;;;;;;;5024508;28;20060;-63
2023/04/17 06:03:04;;;;;;;40.65;18.90;;;;;;;;;;5025176;28;20038;-62
2023/04/17 06:05:31;;;;;;;39.20;19.50;;;;;;;;;;5025585;28;20056;-63
2023/04/17 06:07:57;;;;;;;41.45;19.45;;;;;;;;;;5024560;28;20099;-63
2023/04/17 06:10:23;;;;;;;40.13;18.50;;;;;;;;;;5025785;28;20099;-62
2023/04/17 06:12:49;;;;;;;41.03;19.27;;;;;;;;;;5023882;28;20057;-62
2023/04/17 06:15:15;;;;;;;39.85;19.38;;;;;;;;;;5024664;28;20049;-61
2023/04/17 06:17:41;;;;;;;41.67;20.08;;;;;;;;;;5024733;28;20595;-62
2023/04/17 06:20:09;;;;;;;43.50;21.30;;;;;;;;;;5024621;28;20042;-61
2023/04/17 06:22:37;;;;;;;43.10;19.83;;;;;;;;;;5023418;28;20052;-63
2023/04/17 06:25:03;;;;;;;43.63;19.73;;;;;;;;;;5024347;28;20041;-62
2023/04/17 06:27:29;;;;;;;40.90;19.52;;;;;;;;;;5024028;28;20048;-62
2023/04/17 06:29:55;;;;;;;39.65;17.92;;;;;;;;;;5024662;28;20045;-62
2023/04/17 06:32:21;;;;;;;35.65;18.30;;;;;;;;;;5024689;28;20121;-60
2023/04/17 06:34:47;;;;;;;41.03;18.63;;;;;;;;;;5024166;28;20049;-61
2023/04/17 06:37:13;;;;;;;44.92;20.27;;;;;;;;;;5024006;28;20045;-61
2023/04/17 06:39:40;;;;;;;42.92;19.67;;;;;;;;;;5022939;28;20041;-61
2023/04/17 06:42:06;;;;;;;43.42;19.35;;;;;;;;;;5024568;28;20072;-61
2023/04/17 06:44:32;;;;;;;37.45;19.10;;;;;;;;;;5025088;28;20048;-61
2023/04/17 06:47:02;;;;;;;43.38;19.38;;;;;;;;;;5024514;28;20037;-64
2023/04/17 06:49:30;;;;;;;41.67;19.48;;;;;;;;;;5024566;28;20049;-64
2023/04/17 06:51:57;;;;;;;38.65;19.23;;;;;;;;;;5023945;28;20038;-61
2023/04/17 06:54:23;;;;;;;43.65;20.30;;;;;;;;;;5024898;28;20077;-61
2023/04/17 06:56:50;;;;;;;42.33;19.77;;;;;;;;;;5021981;28;20148;-62
2023/04/17 06:59:16;;;;;;;37.17;18.77;;;;;;;;;;5024324;28;20132;-63
2023/04/17 07:01:42;;;;;;;35.20;18.33;;;;;;;;;;5024336;28;20048;-61
2023/04/17 07:04:09;;;;;;;40.67;19.50;;;;;;;;;;5024147;28;20053;-62
2023/04/17 07:06:35;;;;;;;36.28;17.92;;;;;;;;;;5023262;28;20049;-64
2023/04/17 07:09:02;;;;;;;41.15;19.15;;;;;;;;;;5024213;28;20049;-61
2023/04/17 07:11:28;;;;;;;40.17;19.67;;;;;;;;;;5023846;28;20045;-61
2023/04/17 07:13:54;;;;;;;35.50;17.80;;;;;;;;;;5024522;28;20136;-61
2023/04/17 07:16:21;;;;;;;38.58;18.30;;;;;;;;;;5023420;28;20087;-62
2023/04/17 07:18:48;;;;;;;38.35;18.85;;;;;;;;;;5024174;28;20049;-61
2023/04/17 07:21:14;;;;;;;39.25;19.13;;;;;;;;;;5024030;28;20151;-61
2023/04/17 07:23:41;;;;;;;39.08;19.13;;;;;;;;;;5023410;28;20041;-61
2023/04/17 07:26:07;;;;;;;40.83;20.80;;;;;;;;;;5024161;28;20049;-61
2023/04/17 07:28:33;;;;;;;39.08;19.40;;;;;;;;;;5024141;28;20098;-61
2023/04/17 07:31:00;;;;;;;35.28;17.75;;;;;;;;;;5024095;28;20075;-61
2023/04/17 07:33:26;;;;;;;37.35;18.13;;;;;;;;;;5024373;28;20044;-61
2023/04/17 07:35:52;;;;;;;37.67;18.42;;;;;;;;;;5023291;28;20041;-61
2023/04/17 07:38:19;;;;;;;36.75;19.08;;;;;;;;;;5025169;28;20064;-61
2023/04/17 07:40:45;;;;;;;39.00;18.98;;;;;;;;;;5027255;28;20135;-61
2023/04/17 07:43:11;;;;;;;37.10;19.38;;;;;;;;;;5027758;28;20049;-61
2023/04/17 07:45:37;;;;;;;38.83;20.05;;;;;;;;;;5027608;28;20042;-61
2023/04/17 07:48:03;;;;;;;37.00;19.20;;;;;;;;;;5027870;28;20129;-60
2023/04/17 07:50:30;;;;;;;41.83;20.13;;;;;;;;;;5026692;28;20132;-61
2023/04/17 07:52:56;;;;;;;37.70;19.83;;;;;;;;;;5027045;28;20528;-60
2023/04/17 07:55:22;;;;;;;35.72;19.83;;;;;;;;;;5027102;28;20045;-60
2023/04/17 07:57:50;;;;;;;36.22;18.95;;;;;;;;;;5027429;28;20037;-61
2023/04/17 08:00:16;;;;;;;35.65;19.95;;;;;;;;;;5027934;28;20049;-60
2023/04/17 08:02:43;;;;;;;41.78;19.88;;;;;;;;;;5027256;28;20077;-61
2023/04/17 08:05:09;;;;;;;37.75;19.15;;;;;;;;;;5027438;28;20119;-61
2023/04/17 08:07:36;;;;;;;37.67;19.70;;;;;;;;;;5026144;28;20081;-62
2023/04/17 08:10:02;;;;;;;39.05;21.05;;;;;;;;;;5027830;28;20574;-61
2023/04/17 08:12:29;;;;;;;43.90;21.33;;;;;;;;;;5026767;28;20045;-61
2023/04/17 08:14:55;;;;;;;42.60;22.00;;;;;;;;;;5026867;28;20531;-60
2023/04/17 08:17:22;;;;;;;42.28;22.08;;;;;;;;;;5027257;28;20484;-60
2023/04/17 08:19:52;;;;;;;43.92;22.48;;;;;;;;;;5027396;28;20093;-60
2023/04/17 08:22:20;;;;;;;45.55;23.38;;;;;;;;;;5025705;28;20111;-60
2023/04/17 08:24:48;;;;;;;45.03;23.90;;;;;;;;;;5027156;28;20087;-60
2023/04/17 08:27:14;;;;;;;46.60;23.75;;;;;;;;;;5027234;28;20049;-60
2023/04/17 08:29:41;;;;;;;50.15;23.27;;;;;;;;;;5026757;28;20045;-60
2023/04/17 08:32:07;;;;;;;46.90;24.02;;;;;;;;;;5026618;28;20037;-60
2023/04/17 08:34:34;;;;;;;43.47;23.42;;;;;;;;;;5026864;28;20145;-60
2023/04/17 08:37:01;;;;;;;39.60;22.45;;;;;;;;;;5026542;28;20041;-60
2023/04/17 08:39:27;;;;;;;44.75;23.95;;;;;;;;;;5027394;28;20037;-60
2023/04/17 08:42:00;;;;;;;44.20;23.45;;;;;;;;;;5027027;28;20045;-60
2023/04/17 08:44:27;;;;;;;45.38;24.02;;;;;;;;;;5027456;28;20554;-60
2023/04/17 08:46:55;;;;;;;43.90;23.02;;;;;;;;;;5026655;28;20042;-60
2023/04/17 08:49:22;;;;;;;44.85;23.77;;;;;;;;;;5025947;28;20043;-60
2023/04/17 08:51:48;;;;;;;47.45;23.88;;;;;;;;;;5025617;28;20052;-61
2023/04/17 08:54:15;;;;;;;42.22;23.50;;;;;;;;;;5027014;28;20200;-61
2023/04/17 08:56:41;;;;;;;42.00;23.65;;;;;;;;;;5026276;28;20884;-60
2023/04/17 08:59:07;;;;;;;43.13;23.77;;;;;;;;;;5026143;28;20411;-60
2023/04/17 09:01:33;;;;;;;40.95;23.67;;;;;;;;;;5026523;28;20394;-60
2023/04/17 09:04:00;;;;;;;45.33;24.35;;;;;;;;;;5026614;28;20053;-61
2023/04/17 09:06:26;;;;;;;47.20;23.90;;;;;;;;;;5026275;28;20132;-60
2023/04/17 09:08:55;;;;;;;43.70;23.38;;;;;;;;;;5025415;28;20099;-60
2023/04/17 09:11:22;;;;;;;40.20;23.20;;;;;;;;;;5025719;28;20118;-61
2023/04/17 09:13:48;;;;;;;41.92;22.98;;;;;;;;;;5026317;28;20076;-60
2023/04/17 09:16:15;;;;;;;38.40;22.40;;;;;;;;;;5025992;28;20091;-60
2023/04/17 09:18:42;;;;;;;38.08;22.88;;;;;;;;;;5026118;28;20107;-61
2023/04/17 09:21:08;;;;;;;39.75;22.52;;;;;;;;;;5025486;28;20053;-60
2023/04/17 09:23:47;;;;;;;40.40;22.02;;;;;;;;;;5026402;28;20081;-64
2023/04/17 09:26:14;;;;;;;35.60;21.83;;;;;;;;;;5025995;28;20135;-60
2023/04/17 09:28:42;;;;;;;38.85;23.33;;;;;;;;;;5025820;28;20489;-61
2023/04/17 09:31:17;;;;;;;36.90;21.38;;;;;;;;;;5026682;28;20121;-60
2023/04/17 09:34:10;;;;;;;40.63;22.05;;;;;;;;;;5012886;28;20064;-61
2023/04/17 09:36:38;;;;;;;38.80;23.05;;;;;;;;;;5024874;28;20045;-61
2023/04/17 09:39:05;;;;;;;35.25;21.40;;;;;;;;;;5025750;28;20048;-60
2023/04/17 09:41:33;;;;;;;36.78;21.25;;;;;;;;;;5025689;28;20052;-61
2023/04/17 09:44:00;;;;;;;42.97;20.98;;;;;;;;;;5025630;28;20095;-60
2023/04/17 09:46:36;;;;;;;39.33;21.75;;;;;;;;;;5026043;28;20076;-60
2023/04/17 09:49:10;;;;;;;36.47;21.58;;;;;;;;;;5012589;28;20206;-60
2023/04/17 09:51:36;;;;;;;33.95;20.33;;;;;;;;;;5024402;28;20045;-61
2023/04/17 09:54:05;;;;;;;32.13;20.13;;;;;;;;;;5025909;28;20040;-60
2023/04/17 09:56:33;;;;;;;31.83;18.75;;;;;;;;;;5025326;28;20051;-60
2023/04/17 09:59:02;;;;;;;31.63;18.80;;;;;;;;;;5025071;28;20076;-60
2023/04/17 10:01:29;;;;;;;34.22;19.27;;;;;;;;;;5024664;28;20049;-61
2023/04/17 10:03:57;;;;;;;26.92;17.40;;;;;;;;;;5024882;28;20554;-60
2023/04/17 10:06:25;;;;;;;28.58;17.27;;;;;;;;;;5024700;28;20166;-60
2023/04/17 10:08:51;;;;;;;34.92;17.90;;;;;;;;;;5025079;28;20088;-61
2023/04/17 10:11:18;;;;;;;30.00;18.65;;;;;;;;;;5024611;28;20045;-61
2023/04/17 10:13:46;;;;;;;30.83;17.75;;;;;;;;;;5025193;28;20081;-61
2023/04/17 10:16:12;;;;;;;31.13;18.10;;;;;;;;;;5025076;28;20051;-61
2023/04/17 10:18:38;;;;;;;25.05;16.45;;;;;;;;;;5024681;28;20153;-60
2023/04/17 10:21:21;;;;;;;27.80;16.58;;;;;;;;;;5023832;28;20491;-60
2023/04/17 10:23:48;;;;;;;26.23;16.38;;;;;;;;;;5024813;28;20505;-61
2023/04/17 10:26:26;;;;;;;24.83;16.55;;;;;;;;;;5024994;28;20069;-61
2023/04/17 10:28:53;;;;;;;29.58;16.00;;;;;;;;;;5024640;28;20737;-61
2023/04/17 10:31:21;;;;;;;28.75;15.70;;;;;;;;;;5024331;28;20061;-61
2023/04/17 10:33:48;;;;;;;27.95;15.60;;;;;;;;;;5024439;28;20549;-61
2023/04/17 10:36:41;;;;;;;23.80;13.85;;;;;;;;;;5023073;28;20069;-60
2023/04/17 10:39:14;;;;;;;24.60;15.38;;;;;;;;;;5014123;28;20424;-61
2023/04/17 10:41:59;;;;;;;24.10;14.90;;;;;;;;;;5024576;28;20053;-61
2023/04/17 10:44:25;;;;;;;22.48;14.60;;;;;;;;;;5025309;28;20053;-61
2023/04/17 10:46:51;;;;;;;24.05;14.98;;;;;;;;;;5024201;28;20049;-61
2023/04/17 10:49:20;;;;;;;23.25;13.68;;;;;;;;;;5023254;28;20057;-60
2023/04/17 10:51:46;;;;;;;22.70;12.85;;;;;;;;;;5023220;28;20125;-60
2023/04/17 10:54:14;;;;;;;23.70;14.30;;;;;;;;;;5024810;28;20497;-61
2023/04/17 10:56:44;;;;;;;21.20;14.15;;;;;;;;;;5024156;28;20084;-61
2023/04/17 10:59:11;;;;;;;21.55;13.07;;;;;;;;;;5024527;28;20048;-61
2023/04/17 11:01:47;;;;;;;19.45;13.10;;;;;;;;;;5024181;28;20042;-61
2023/04/17 11:04:21;;;;;;;24.13;13.85;;;;;;;;;;5024507;28;20045;-61
2023/04/17 11:06:47;;;;;;;19.23;13.23;;;;;;;;;;5023366;28;20037;-60
2023/04/17 11:09:14;;;;;;;22.77;13.65;;;;;;;;;;5024337;28;20049;-61
2023/04/17 11:11:41;;;;;;;17.95;12.32;;;;;;;;;;5022200;28;20060;-61
2023/04/17 11:14:09;;;;;;;20.77;13.13;;;;;;;;;;5024264;28;20491;-60
2023/04/17 11:16:38;;;;;;;19.23;11.82;;;;;;;;;;5023752;28;20045;-64
2023/04/17 11:19:05;;;;;;;21.30;11.65;;;;;;;;;;5023130;28;20150;-61
2023/04/17 11:21:31;;;;;;;19.75;13.35;;;;;;;;;;5023583;28;20041;-62
2023/04/17 11:24:01;;;;;;;21.42;13.02;;;;;;;;;;5023091;28;20670;-61
2023/04/17 11:26:27;;;;;;;19.38;12.65;;;;;;;;;;5024052;28;20041;-61
2023/04/17 11:28:53;;;;;;;22.95;12.90;;;;;;;;;;5023029;28;20466;-61
2023/04/17 11:31:20;;;;;;;19.30;13.02;;;;;;;;;;5024048;28;20042;-61
2023/04/17 11:33:48;;;;;;;19.55;12.68;;;;;;;;;;5023479;28;20049;-61
2023/04/17 11:36:14;;;;;;;19.52;12.57;;;;;;;;;;5023502;28;20041;-61
2023/04/17 11:38:47;;;;;;;20.58;12.57;;;;;;;;;;5020352;28;20038;-61
2023/04/17 11:41:13;;;;;;;23.52;12.23;;;;;;;;;;5003977;28;20131;-61
2023/04/17 11:43:39;;;;;;;18.80;11.85;;;;;;;;;;5022091;28;20072;-61
2023/04/17 11:46:06;;;;;;;19.27;12.23;;;;;;;;;;5023229;28;20045;-61
2023/04/17 11:48:32;;;;;;;19.65;12.00;;;;;;;;;;5023521;28;20092;-61
2023/04/17 11:51:00;;;;;;;20.30;12.25;;;;;;;;;;5022707;28;20045;-61
2023/04/17 11:53:26;;;;;;;;;;;;;;;;;;5024448;28;20402;-61
2023/04/17 11:56:12;;;;;;;17.00;10.93;;;;;;;;;;5023257;28;19921;-61
2023/04/17 11:58:46;;;;;;;17.65;11.73;;;;;;;;;;5022923;28;20041;-61
2023/04/17 12:01:12;;;;;;;23.02;12.23;;;;;;;;;;5023935;28;20398;-60
2023/04/17 12:03:38;;;;;;;20.42;11.82;;;;;;;;;;5023675;28;20042;-60
2023/04/17 12:06:05;;;;;;;18.52;11.80;;;;;;;;;;5023040;28;20108;-61
2023/04/17 12:08:41;;;;;;;21.88;12.40;;;;;;;;;;5023985;28;20049;-62
2023/04/17 12:11:14;;;;;;;18.85;11.63;;;;;;;;;;5022696;28;20045;-62
2023/04/17 12:13:40;;;;;;;21.67;12.10;;;;;;;;;;5023223;28;20093;-62
2023/04/17 12:16:06;;;;;;;18.13;12.20;;;;;;;;;;5023790;28;20041;-62
2023/04/17 12:18:32;;;;;;;20.52;12.00;;;;;;;;;;5023746;28;20107;-62
2023/04/17 12:20:58;;;;;;;20.38;12.63;;;;;;;;;;5022952;28;20752;-64
2023/04/17 12:23:24;;;;;;;20.38;13.10;;;;;;;;;;5024674;28;20045;-61
2023/04/17 12:25:50;;;;;;;22.77;11.88;;;;;;;;;;5026914;28;20041;-61
2023/04/17 12:28:17;;;;;;;17.05;11.77;;;;;;;;;;5027211;28;20056;-61
2023/04/17 12:30:43;;;;;;;17.00;12.20;;;;;;;;;;5027034;28;20049;-61
2023/04/17 12:33:09;;;;;;;20.25;11.88;;;;;;;;;;5025373;28;20053;-61
2023/04/17 12:35:35;;;;;;;16.60;11.48;;;;;;;;;;5025893;28;20060;-62
2023/04/17 12:38:01;;;;;;;18.67;10.60;;;;;;;;;;5026792;28;20107;-61
2023/04/17 12:40:27;;;;;;;20.85;11.02;;;;;;;;;;5026903;28;20057;-61
2023/04/17 12:42:53;;;;;;;16.98;10.50;;;;;;;;;;5026983;28;20124;-61
2023/04/17 12:45:20;;;;;;;19.83;11.05;;;;;;;;;;5025021;28;20777;-61
2023/04/17 12:47:46;;;;;;;15.40;10.65;;;;;;;;;;5026346;28;20106;-61
2023/04/17 12:50:12;;;;;;;18.10;11.60;;;;;;;;;;5026830;28;20495;-61
2023/04/17 12:52:38;;;;;;;20.80;11.80;;;;;;;;;;5025712;28;20125;-61
2023/04/17 12:55:06;;;;;;;17.80;11.88;;;;;;;;;;5026073;28;20531;-61
2023/04/17 12:57:33;;;;;;;21.40;12.35;;;;;;;;;;5026539;28;20077;-61
2023/04/17 12:59:59;;;;;;;20.83;12.18;;;;;;;;;;5026825;28;20046;-62
2023/04/17 13:02:26;;;;;;;19.88;11.65;;;;;;;;;;5026786;28;20050;-61
2023/04/17 13:04:52;;;;;;;16.30;11.10;;;;;;;;;;5026272;28;20038;-61
2023/04/17 13:07:19;;;;;;;18.88;10.45;;;;;;;;;;5025713;28;20045;-61
2023/04/17 13:09:45;;;;;;;18.40;10.48;;;;;;;;;;5026043;28;20073;-61
2023/04/17 13:12:14;;;;;;;21.17;11.07;;;;;;;;;;5025590;28;20050;-61
2023/04/17 13:14:40;;;;;;;18.67;12.45;;;;;;;;;;5025930;28;20899;-61
2023/04/17 13:17:07;;;;;;;18.23;11.13;;;;;;;;;;5026193;28;20045;-61
2023/04/17 13:19:33;;;;;;;16.98;10.50;;;;;;;;;;5025744;28;20399;-62
2023/04/17 13:22:00;;;;;;;20.77;11.73;;;;;;;;;;5024901;28;20135;-62
2023/04/17 13:24:26;;;;;;;18.17;11.32;;;;;;;;;;5026497;28;20095;-61
2023/04/17 13:26:52;;;;;;;25.70;11.52;;;;;;;;;;5026163;28;20037;-61
2023/04/17 13:29:18;;;;;;;22.13;12.05;;;;;;;;;;5026115;28;20049;-61
2023/04/17 13:31:44;;;;;;;19.00;12.45;;;;;;;;;;5024980;28;20045;-61
2023/04/17 13:34:11;;;;;;;19.95;11.95;;;;;;;;;;5025076;28;20052;-62
2023/04/17 13:36:37;;;;;;;22.92;12.23;;;;;;;;;;5023772;28;20742;-63
2023/04/17 13:39:05;;;;;;;21.15;11.15;;;;;;;;;;5018517;28;20048;-62
2023/04/17 13:41:31;;;;;;;16.80;10.77;;;;;;;;;;5020907;28;20547;-62
2023/04/17 13:43:57;;;;;;;17.90;9.70;;;;;;;;;;5026239;28;20387;-62
2023/04/17 13:46:23;;;;;;;19.25;10.38;;;;;;;;;;5025812;28;20535;-62
2023/04/17 13:48:50;;;;;;;13.25;9.43;;;;;;;;;;5024960;28;20045;-63
2023/04/17 13:51:16;;;;;;;21.92;10.43;;;;;;;;;;5024710;28;20050;-62
2023/04/17 13:53:42;;;;;;;16.27;9.57;;;;;;;;;;5025132;28;20045;-64
2023/04/17 13:56:09;;;;;;;17.52;9.77;;;;;;;;;;5023935;28;20139;-65
2023/04/17 13:58:35;;;;;;;13.98;9.82;;;;;;;;;;5025448;28;20041;-66
2023/04/17 14:01:01;;;;;;;18.85;9.95;;;;;;;;;;5025654;28;20063;-65
2023/04/17 14:03:27;;;;;;;14.95;10.00;;;;;;;;;;5025783;28;20095;-66
2023/04/17 14:05:53;;;;;;;18.75;9.45;;;;;;;;;;5024237;28;20038;-65
2023/04/17 14:08:19;;;;;;;13.50;9.27;;;;;;;;;;5025396;28;20045;-66
2023/04/17 14:10:45;;;;;;;87.63;12.68;;;;;;;;;;5024567;28;20045;-66
2023/04/17 14:13:12;;;;;;;15.48;10.27;;;;;;;;;;5024321;28;20060;-66
2023/04/17 14:15:39;;;;;;;14.90;9.45;;;;;;;;;;5024972;28;20863;-66
2023/04/17 14:18:05;;;;;;;11.82;8.55;;;;;;;;;;5025062;28;20403;-66